Map

Track Data

SID SEASON NUMBER BASIN SUBBASIN NAME ISO_TIME NATURE LAT LON WMO_WIND WMO_PRES WMO_AGENCY TRACK_TYPE DIST2LAND LANDFALL IFLAG USA_AGENCY USA_ATCF_ID USA_LAT USA_LON USA_RECORD USA_STATUS USA_WIND USA_PRES USA_SSHS USA_R34_NE USA_R34_SE USA_R34_SW USA_R34_NW USA_R50_NE USA_R50_SE USA_R50_SW USA_R50_NW USA_R64_NE USA_R64_SE USA_R64_SW USA_R64_NW USA_POCI USA_ROCI USA_RMW USA_EYE TOKYO_LAT TOKYO_LON TOKYO_GRADE TOKYO_WIND TOKYO_PRES TOKYO_R50_DIR TOKYO_R50_LONG TOKYO_R50_SHORT TOKYO_R30_DIR TOKYO_R30_LONG TOKYO_R30_SHORT TOKYO_LAND CMA_LAT CMA_LON CMA_CAT CMA_WIND CMA_PRES HKO_LAT HKO_LON HKO_CAT HKO_WIND HKO_PRES NEWDELHI_LAT NEWDELHI_LON NEWDELHI_GRADE NEWDELHI_WIND NEWDELHI_PRES NEWDELHI_CI NEWDELHI_DP NEWDELHI_POCI REUNION_LAT REUNION_LON REUNION_TYPE REUNION_WIND REUNION_PRES REUNION_TNUM REUNION_CI REUNION_RMW REUNION_R34_NE REUNION_R34_SE REUNION_R34_SW REUNION_R34_NW REUNION_R50_NE REUNION_R50_SE REUNION_R50_SW REUNION_R50_NW REUNION_R64_NE REUNION_R64_SE REUNION_R64_SW REUNION_R64_NW BOM_LAT BOM_LON BOM_TYPE BOM_WIND BOM_PRES BOM_TNUM BOM_CI BOM_RMW BOM_R34_NE BOM_R34_SE BOM_R34_SW BOM_R34_NW BOM_R50_NE BOM_R50_SE BOM_R50_SW BOM_R50_NW BOM_R64_NE BOM_R64_SE BOM_R64_SW BOM_R64_NW BOM_ROCI BOM_POCI BOM_EYE BOM_POS_METHOD BOM_PRES_METHOD NADI_LAT NADI_LON NADI_CAT NADI_WIND NADI_PRES WELLINGTON_LAT WELLINGTON_LON WELLINGTON_WIND WELLINGTON_PRES DS824_LAT DS824_LON DS824_STAGE DS824_WIND DS824_PRES TD9636_LAT TD9636_LON TD9636_STAGE TD9636_WIND TD9636_PRES TD9635_LAT TD9635_LON TD9635_WIND TD9635_PRES TD9635_ROCI NEUMANN_LAT NEUMANN_LON NEUMANN_CLASS NEUMANN_WIND NEUMANN_PRES MLC_LAT MLC_LON MLC_CLASS MLC_WIND MLC_PRES USA_GUST BOM_GUST BOM_GUST_PER REUNION_GUST REUNION_GUST_PER USA_SEAHGT USA_SEARAD_NE USA_SEARAD_SE USA_SEARAD_SW USA_SEARAD_NW STORM_SPEED STORM_DIR
1893225N18130 1893 28 WP MM NOT_NAMED 1893-08-12 16:00:00 NR 18.1000 130.400 main 795 793 __________O___ -1 18.1000 130.400 7 14 338
1893225N18130 1893 28 WP MM NOT_NAMED 1893-08-12 18:00:00 NR 18.5355 130.217 main 805 811 __________P___ -1 18.5355 130.217 7 14 338
1893225N18130 1893 28 WP MM NOT_NAMED 1893-08-12 21:00:00 NR 19.1691 129.954 main 815 791 __________P___ -1 19.1691 129.954 7 13 339
1893225N18130 1893 28 WP MM NOT_NAMED 1893-08-13 00:00:00 NR 19.7523 129.723 main 793 784 __________P___ -1 19.7523 129.723 7 12 340
1893225N18130 1893 28 WP MM NOT_NAMED 1893-08-13 03:00:00 NR 20.2553 129.544 main 784 784 __________P___ -1 20.2553 129.544 7 10 342
1893225N18130 1893 28 WP MM NOT_NAMED 1893-08-13 04:00:00 NR 20.4000 129.500 main 787 783 __________O___ -1 20.4000 129.500 7 8 346
1893225N18130 1893 28 WP MM NOT_NAMED 1893-08-13 06:00:00 NR 20.6521 129.437 main 787 787 __________P___ -1 20.6521 129.437 7 7 350
1893225N18130 1893 28 WP MM NOT_NAMED 1893-08-13 09:00:00 NR 20.9609 129.393 main 797 797 __________P___ -1 20.9609 129.393 7 6 356
1893225N18130 1893 28 WP MM NOT_NAMED 1893-08-13 12:00:00 NR 21.2279 129.389 main 805 805 __________P___ -1 21.2279 129.389 7 5 2
1893225N18130 1893 28 WP MM NOT_NAMED 1893-08-13 15:00:00 NR 21.5001 129.398 main 818 818 __________P___ -1 21.5001 129.398 7 6 0
1893225N18130 1893 28 WP MM NOT_NAMED 1893-08-13 16:00:00 NR 21.6000 129.400 main 823 823 __________O___ -1 21.6000 129.400 7 7 0
1893225N18130 1893 28 WP MM NOT_NAMED 1893-08-13 18:00:00 NR 21.8360 129.381 main 823 807 __________P___ -1 21.8360 129.381 7 7 356
1893225N18130 1893 28 WP MM NOT_NAMED 1893-08-13 21:00:00 NR 22.2150 129.352 main 807 783 __________P___ -1 22.2150 129.352 7 8 356
1893225N18130 1893 28 WP MM NOT_NAMED 1893-08-14 00:00:00 NR 22.6213 129.326 main 783 768 __________P___ -1 22.6213 129.326 7 8 358
1893225N18130 1893 28 WP MM NOT_NAMED 1893-08-14 03:00:00 NR 23.0517 129.305 main 768 765 __________P___ -1 23.0517 129.305 7 9 359
1893225N18130 1893 28 WP MM NOT_NAMED 1893-08-14 04:00:00 NR 23.2000 129.300 main 765 758 __________O___ -1 23.2000 129.300 7 9 0
1893225N18130 1893 28 WP MM NOT_NAMED 1893-08-14 06:00:00 NR 23.5100 129.297 main 758 746 __________P___ -1 23.5100 129.297 7 10 359
1893225N18130 1893 28 WP MM NOT_NAMED 1893-08-14 09:00:00 NR 23.9942 129.298 main 746 738 __________P___ -1 23.9942 129.298 7 10 2
1893225N18130 1893 28 WP MM NOT_NAMED 1893-08-14 12:00:00 NR 24.4820 129.302 main 738 683 __________P___ -1 24.4820 129.302 7 10 0
1893225N18130 1893 28 WP MM NOT_NAMED 1893-08-14 15:00:00 NR 24.9514 129.302 main 683 672 __________P___ -1 24.9514 129.302 7 9 360
1893225N18130 1893 28 WP MM NOT_NAMED 1893-08-14 16:00:00 NR 25.1000 129.300 main 672 640 __________O___ -1 25.1000 129.300 3 8 0
1893225N18130 1893 28 WP MM NOT_NAMED 1893-08-14 18:00:00 NR 25.3728 129.287 main 640 596 __________P___ -1 25.3728 129.287 3 8 356
1893225N18130 1893 28 WP MM NOT_NAMED 1893-08-14 21:00:00 NR 25.7568 129.260 main 596 566 __________P___ -1 25.7568 129.260 3 8 356
1893225N18130 1893 28 WP MM NOT_NAMED 1893-08-15 00:00:00 NR 26.1217 129.231 main 566 523 __________P___ -1 26.1217 129.231 3 7 357
1893225N18130 1893 28 WP MM NOT_NAMED 1893-08-15 03:00:00 NR 26.4799 129.206 main 523 512 __________P___ -1 26.4799 129.206 3 7 0
1893225N18130 1893 28 WP MM NOT_NAMED 1893-08-15 04:00:00 NR 26.6000 129.200 main 512 490 __________O___ -1 26.6000 129.200 4 7 0
1893225N18130 1893 28 WP MM NOT_NAMED 1893-08-15 06:00:00 NR 26.8474 129.184 main 490 448 __________P___ -1 26.8474 129.184 4 7 357
1893225N18130 1893 28 WP MM NOT_NAMED 1893-08-15 09:00:00 NR 27.2183 129.166 main 448 406 __________P___ -1 27.2183 129.166 4 7 0
1893225N18130 1893 28 WP MM NOT_NAMED 1893-08-15 12:00:00 NR 27.5921 129.163 main 406 364 __________P___ -1 27.5921 129.163 4 8 2
1893225N18130 1893 28 WP MM NOT_NAMED 1893-08-15 15:00:00 NR 27.9716 129.186 main 364 354 __________P___ -1 27.9716 129.186 4 8 5
1893225N18130 1893 28 WP MM NOT_NAMED 1893-08-15 16:00:00 NR 28.1000 129.200 main 354 324 __________O___ -1 28.1000 129.200 4 8 8
1893225N18130 1893 28 WP MM NOT_NAMED 1893-08-15 18:00:00 NR 28.3599 129.241 main 324 280 __________P___ -1 28.3599 129.241 4 8 9
1893225N18130 1893 28 WP MM NOT_NAMED 1893-08-15 21:00:00 NR 28.7565 129.327 main 280 236 __________P___ -1 28.7565 129.327 4 8 12
1893225N18130 1893 28 WP MM NOT_NAMED 1893-08-16 00:00:00 NR 29.1589 129.436 main 236 187 __________P___ -1 29.1589 129.436 4 8 14
1893225N18130 1893 28 WP MM NOT_NAMED 1893-08-16 03:00:00 NR 29.5645 129.558 main 187 176 __________P___ -1 29.5645 129.558 4 8 15
1893225N18130 1893 28 WP MM NOT_NAMED 1893-08-16 04:00:00 NR 29.7000 129.600 main 176 __________O___ -1 29.7000 129.600 7 8 18

Digital Typhoon Data and Search

About IBTrACS Database

This database is a web-friendly format of International Best Track Archive for Climate Stewardship (IBTrACS), a global best track data archive curated by NOAA dating back to 1842.

Updated: 2021-10-21